Time;durP1;ratioP1;P1;durP2;ratioP2;P2;SDS_P1;SDS_P2;PMS_P1;PMS_P2;Temp;Humidity;BMP_temperature;BMP_pressure;BME280_temperature;BME280_humidity;BME280_pressure;Samples;Min_cycle;Max_cycle;Signal;HPM_P1;HPM_P2
2021/08/04 00:00:49;;;;;;;4.60;2.67;;;27.10;52.80;;;;;;5045443;28;20782;-75
2021/08/04 00:03:15;;;;;;;3.88;2.80;;;27.10;52.30;;;;;;5045826;28;20191;-73
2021/08/04 00:05:43;;;;;;;5.85;3.00;;;27.00;52.30;;;;;;5043458;28;20233;-75
2021/08/04 00:08:09;;;;;;;8.43;3.25;;;27.00;52.10;;;;;;5044239;28;20203;-74
2021/08/04 00:10:35;;;;;;;6.07;3.20;;;27.00;52.20;;;;;;5044332;28;20191;-75
2021/08/04 00:13:02;;;;;;;5.35;3.10;;;27.00;51.90;;;;;;5041595;28;20226;-75
2021/08/04 00:15:29;;;;;;;4.38;2.50;;;27.00;51.60;;;;;;5043892;28;21933;-73
2021/08/04 00:17:55;;;;;;;7.15;3.00;;;27.00;51.80;;;;;;5044416;28;20286;-75
2021/08/04 00:20:22;;;;;;;7.38;2.60;;;27.00;51.90;;;;;;5042098;28;20192;-75
2021/08/04 00:22:48;;;;;;;4.50;2.53;;;27.00;52.00;;;;;;5040946;28;20194;-73
2021/08/04 00:25:15;;;;;;;5.13;2.95;;;27.10;51.50;;;;;;5045496;28;20183;-75
2021/08/04 00:27:41;;;;;;;3.15;2.63;;;27.10;51.70;;;;;;5044331;28;20660;-73
2021/08/04 00:30:08;;;;;;;3.72;2.55;;;27.10;52.40;;;;;;5042972;28;20209;-73
2021/08/04 00:32:36;;;;;;;3.90;2.88;;;27.20;52.00;;;;;;5041946;28;20225;-72
2021/08/04 00:35:03;;;;;;;7.93;2.72;;;27.20;52.30;;;;;;5040218;28;20183;-73
2021/08/04 00:37:31;;;;;;;7.43;3.17;;;27.20;52.00;;;;;;5026530;28;20659;-73
2021/08/04 00:39:57;;;;;;;5.25;2.97;;;27.20;52.20;;;;;;5042942;28;20199;-73
2021/08/04 00:42:24;;;;;;;7.18;3.10;;;27.20;52.20;;;;;;5026717;28;20191;-76
2021/08/04 00:44:50;;;;;;;6.60;3.10;;;27.20;51.40;;;;;;5042108;28;20192;-76
2021/08/04 00:47:19;;;;;;;8.60;3.58;;;27.20;52.30;;;;;;5043705;28;20273;-73
2021/08/04 00:49:48;;;;;;;9.30;3.40;;;27.20;52.00;;;;;;5042215;28;20211;-73
2021/08/04 00:52:14;;;;;;;5.53;3.50;;;27.20;52.30;;;;;;5041506;28;20798;-73
2021/08/04 00:54:41;;;;;;;8.25;4.47;;;27.20;51.30;;;;;;5043190;28;20195;-73
2021/08/04 00:57:08;;;;;;;5.63;3.60;;;27.20;51.20;;;;;;5026543;28;20187;-73
2021/08/04 00:59:36;;;;;;;8.85;3.88;;;27.30;51.10;;;;;;5040817;28;20528;-73
2021/08/04 01:02:10;;;;;;;6.30;4.15;;;27.20;50.40;;;;;;5026478;28;20194;-74
2021/08/04 01:05:27;;;;;;;8.45;4.13;;;27.20;50.50;;;;;;5062411;28;20241;-74
2021/08/04 01:08:07;;;;;;;6.75;4.15;;;27.20;51.10;;;;;;5059145;28;20412;-74
2021/08/04 01:10:46;;;;;;;7.25;4.50;;;27.20;50.90;;;;;;5044140;28;20183;-74
2021/08/04 01:13:41;;;;;;;10.63;5.03;;;27.20;50.60;;;;;;5027577;28;20191;-73
2021/08/04 01:16:23;;;;;;;6.65;4.40;;;27.30;51.80;;;;;;5023247;28;20275;-76
2021/08/04 01:19:15;;;;;;;10.32;5.18;;;27.30;52.00;;;;;;5044593;28;20194;-72
2021/08/04 01:22:08;;;;;;;5.85;4.97;;;27.30;51.90;;;;;;5047730;28;20266;-76
2021/08/04 01:25:12;;;;;;;9.10;4.70;;;27.30;51.00;;;;;;5044906;28;20226;-73
2021/08/04 01:28:13;;;;;;;7.30;4.65;;;27.30;50.50;;;;;;5030531;28;20207;-76
2021/08/04 01:30:41;;;;;;;6.10;4.97;;;27.20;50.40;;;;;;5026754;28;20284;-75
2021/08/04 01:33:07;;;;;;;9.45;5.38;;;27.20;49.80;;;;;;5045415;28;20235;-75
2021/08/04 01:35:36;;;;;;;7.55;4.63;;;27.20;50.30;;;;;;5041425;28;20211;-75
2021/08/04 01:38:04;;;;;;;8.05;5.10;;;27.20;50.10;;;;;;5028706;28;20203;-75
2021/08/04 01:40:32;;;;;;;8.88;5.53;;;27.20;50.30;;;;;;5045216;28;20196;-75
2021/08/04 01:42:59;;;;;;;6.38;4.63;;;27.10;50.20;;;;;;5028376;28;20198;-75
2021/08/04 01:45:26;;;;;;;6.18;5.18;;;27.10;50.30;;;;;;5028309;28;20227;-74
2021/08/04 01:47:53;;;;;;;8.73;5.03;;;27.10;50.40;;;;;;5046915;28;20215;-75
2021/08/04 01:50:20;;;;;;;8.38;5.18;;;27.10;51.20;;;;;;5042785;28;20211;-75
2021/08/04 01:52:46;;;;;;;6.18;5.03;;;27.00;50.70;;;;;;5061063;28;20188;-75
2021/08/04 01:55:15;;;;;;;7.72;4.40;;;26.90;50.70;;;;;;5043011;28;20207;-75
2021/08/04 01:57:41;;;;;;;9.70;4.38;;;26.90;50.50;;;;;;5027454;28;20249;-75
2021/08/04 02:00:08;;;;;;;5.63;4.75;;;26.90;50.50;;;;;;5038358;28;20192;-76
2021/08/04 02:02:36;;;;;;;7.20;4.53;;;26.80;50.90;;;;;;5027677;28;20321;-75
2021/08/04 02:05:02;;;;;;;6.90;4.45;;;26.80;50.50;;;;;;5043843;28;20191;-73
2021/08/04 02:08:06;;;;;;;6.03;4.35;;;26.80;50.20;;;;;;5043313;28;20214;-75
2021/08/04 02:11:11;;;;;;;7.70;4.68;;;26.80;50.70;;;;;;5041014;28;20844;-76
2021/08/04 02:14:05;;;;;;;11.00;4.60;;;26.80;50.60;;;;;;5041198;28;20233;-75
2021/08/04 02:17:24;;;;;;;7.72;4.72;;;26.70;50.40;;;;;;5043373;28;20214;-75
2021/08/04 02:20:19;;;;;;;6.00;4.50;;;26.70;50.10;;;;;;5024137;28;20274;-75
2021/08/04 02:23:15;;;;;;;9.35;4.82;;;26.70;50.00;;;;;;5047997;28;20204;-75
2021/08/04 02:25:57;;;;;;;7.47;4.80;;;26.70;50.20;;;;;;5026515;28;20188;-76
2021/08/04 02:28:35;;;;;;;9.73;5.50;;;26.70;50.30;;;;;;5046579;28;20223;-75
2021/08/04 02:31:05;;;;;;;6.72;5.00;;;26.70;50.30;;;;;;5049203;28;20191;-74
2021/08/04 02:33:32;;;;;;;7.72;4.78;;;26.70;50.10;;;;;;5053020;28;20652;-75
2021/08/04 02:35:59;;;;;;;7.03;4.43;;;26.70;50.20;;;;;;5045413;28;20924;-74
2021/08/04 02:38:26;;;;;;;12.40;5.43;;;26.80;50.20;;;;;;5029623;28;20191;-75
2021/08/04 02:40:53;;;;;;;11.48;5.57;;;26.70;49.90;;;;;;5048300;28;20196;-75
2021/08/04 02:43:22;;;;;;;7.85;4.30;;;26.70;50.10;;;;;;5047802;28;20249;-75
2021/08/04 02:45:50;;;;;;;5.13;4.28;;;26.70;50.20;;;;;;5025085;28;20211;-75
2021/08/04 02:48:19;;;;;;;7.45;4.55;;;26.70;50.10;;;;;;5026493;28;20216;-74
2021/08/04 02:50:52;;;;;;;7.50;4.65;;;26.70;50.10;;;;;;5042925;28;20282;-75
2021/08/04 02:53:20;;;;;;;8.52;4.68;;;26.70;50.10;;;;;;5061071;28;20207;-75
2021/08/04 02:55:51;;;;;;;6.05;4.22;;;26.70;50.20;;;;;;5044164;28;20237;-75
2021/08/04 02:58:18;;;;;;;7.80;4.40;;;26.60;50.30;;;;;;5030618;28;20770;-75
2021/08/04 03:00:45;;;;;;;5.93;4.60;;;26.60;50.10;;;;;;5030933;28;20202;-75
2021/08/04 03:03:12;;;;;;;10.80;4.65;;;26.60;50.80;;;;;;5043206;28;20190;-74
2021/08/04 03:05:38;;;;;;;7.60;4.40;;;26.60;50.30;;;;;;5059550;28;20223;-75
2021/08/04 03:08:04;;;;;;;8.10;4.60;;;26.50;50.10;;;;;;5046407;28;20208;-75
2021/08/04 03:10:31;;;;;;;17.33;4.57;;;26.50;50.20;;;;;;5045834;28;20175;-75
2021/08/04 03:12:59;;;;;;;8.77;4.70;;;26.50;50.10;;;;;;5031000;28;20199;-74
2021/08/04 03:15:25;;;;;;;12.10;4.85;;;26.50;50.10;;;;;;5041781;28;20410;-74
2021/08/04 03:17:52;;;;;;;7.95;4.65;;;26.50;50.20;;;;;;5029060;28;20234;-74
2021/08/04 03:20:18;;;;;;;7.28;4.38;;;26.50;50.50;;;;;;5047378;28;20187;-74
2021/08/04 03:22:47;;;;;;;6.20;4.45;;;26.50;50.40;;;;;;5026728;28;20191;-75
2021/08/04 03:25:18;;;;;;;7.55;4.43;;;26.50;50.40;;;;;;5022449;28;20286;-75
2021/08/04 03:27:45;;;;;;;13.70;4.32;;;26.60;51.00;;;;;;5044323;28;20199;-75
2021/08/04 03:30:13;;;;;;;7.28;4.40;;;26.60;51.30;;;;;;5043608;28;20194;-75
2021/08/04 03:32:39;;;;;;;13.27;4.18;;;26.60;51.30;;;;;;5041355;28;20187;-74
2021/08/04 03:35:09;;;;;;;6.43;4.38;;;26.60;51.00;;;;;;5045191;28;20195;-74
2021/08/04 03:37:35;;;;;;;6.30;3.85;;;26.50;50.40;;;;;;5027758;28;20222;-74
2021/08/04 03:40:02;;;;;;;7.05;4.38;;;26.60;50.50;;;;;;5031094;28;20973;-75
2021/08/04 03:42:29;;;;;;;4.50;3.65;;;26.60;51.00;;;;;;5046679;28;20652;-75
2021/08/04 03:44:55;;;;;;;8.45;3.80;;;26.70;50.80;;;;;;5026958;28;20264;-75
2021/08/04 03:47:21;;;;;;;5.47;3.70;;;26.70;51.20;;;;;;5029168;28;20967;-74
2021/08/04 03:49:47;;;;;;;5.75;3.85;;;26.70;51.30;;;;;;5028141;28;20254;-74
2021/08/04 03:52:14;;;;;;;7.65;3.40;;;26.70;51.10;;;;;;5045336;28;20188;-75
2021/08/04 03:54:40;;;;;;;5.05;3.38;;;26.70;51.40;;;;;;5027316;28;20256;-75
2021/08/04 03:57:06;;;;;;;8.82;3.85;;;26.70;51.60;;;;;;5028702;28;20176;-75
2021/08/04 03:59:32;;;;;;;18.67;3.88;;;26.70;51.30;;;;;;5028153;28;20678;-75
2021/08/04 04:01:59;;;;;;;6.72;3.45;;;26.70;51.90;;;;;;5044069;28;20215;-75
2021/08/04 04:04:25;;;;;;;4.72;3.63;;;26.70;51.70;;;;;;5043873;28;21034;-75
2021/08/04 04:06:51;;;;;;;4.28;3.38;;;26.70;51.90;;;;;;5030630;28;20208;-74
2021/08/04 04:09:18;;;;;;;6.93;3.85;;;26.70;52.20;;;;;;5042154;28;20680;-75
2021/08/04 04:11:45;;;;;;;5.47;3.50;;;26.80;52.70;;;;;;5044463;28;20194;-75
2021/08/04 04:14:12;;;;;;;10.38;3.60;;;26.80;53.30;;;;;;5028280;28;20183;-76
2021/08/04 04:16:38;;;;;;;5.18;3.15;;;26.80;53.20;;;;;;5058957;28;20191;-75
2021/08/04 04:19:04;;;;;;;7.65;3.90;;;26.80;52.90;;;;;;5044214;28;20195;-75
2021/08/04 04:21:33;;;;;;;8.80;3.40;;;26.80;53.40;;;;;;5044173;28;20941;-74
2021/08/04 04:23:59;;;;;;;8.75;3.65;;;26.80;53.30;;;;;;5042308;28;20194;-75
2021/08/04 04:26:26;;;;;;;5.97;3.10;;;26.80;54.00;;;;;;5047524;28;20857;-75
2021/08/04 04:28:52;;;;;;;5.07;2.88;;;26.90;54.20;;;;;;5046408;28;20801;-75
2021/08/04 04:31:18;;;;;;;4.25;3.28;;;26.90;54.70;;;;;;5027699;28;20605;-75
2021/08/04 04:33:45;;;;;;;5.90;3.30;;;26.90;54.30;;;;;;5044007;28;20277;-75
2021/08/04 04:36:13;;;;;;;6.35;3.00;;;26.90;54.50;;;;;;5042832;28;20179;-74
2021/08/04 04:38:39;;;;;;;4.82;3.08;;;26.90;54.60;;;;;;5057263;28;20184;-75
2021/08/04 04:41:05;;;;;;;5.72;3.15;;;27.00;55.50;;;;;;5043376;28;20333;-75
2021/08/04 04:43:32;;;;;;;4.20;3.30;;;27.00;55.50;;;;;;5045220;28;20187;-75
2021/08/04 04:45:58;;;;;;;7.32;3.10;;;27.00;55.60;;;;;;5040813;28;20224;-74
2021/08/04 04:48:24;;;;;;;9.82;3.42;;;27.00;55.60;;;;;;5039484;28;20207;-75
2021/08/04 04:50:51;;;;;;;7.00;3.30;;;27.10;55.90;;;;;;5042288;28;20850;-74
2021/08/04 04:53:18;;;;;;;8.70;3.60;;;27.10;56.90;;;;;;5039513;28;20215;-75
2021/08/04 04:55:44;;;;;;;5.35;2.70;;;27.10;56.70;;;;;;5042435;28;20747;-74
2021/08/04 04:58:11;;;;;;;4.13;3.28;;;27.20;56.80;;;;;;5042301;28;20215;-73
2021/08/04 05:00:37;;;;;;;5.28;3.13;;;27.20;57.30;;;;;;5041510;28;20183;-75
2021/08/04 05:03:03;;;;;;;7.88;2.95;;;27.20;57.30;;;;;;5042966;28;20195;-74
2021/08/04 05:05:30;;;;;;;4.55;3.08;;;27.30;57.30;;;;;;5039805;28;20198;-74
2021/08/04 05:07:56;;;;;;;11.93;3.35;;;27.30;57.60;;;;;;5037773;28;20219;-73
2021/08/04 05:10:22;;;;;;;9.98;3.42;;;27.50;56.50;;;;;;5042943;28;20210;-73
2021/08/04 05:12:48;;;;;;;6.07;3.25;;;27.50;56.70;;;;;;5057746;28;20188;-73
2021/08/04 05:15:15;;;;;;;6.70;3.05;;;27.60;56.50;;;;;;5056025;28;20690;-75
2021/08/04 05:17:41;;;;;;;4.95;3.08;;;27.60;56.40;;;;;;5020606;28;20192;-73
2021/08/04 05:20:09;;;;;;;5.95;3.30;;;27.60;57.00;;;;;;5044982;28;20206;-73
2021/08/04 05:22:35;;;;;;;5.90;3.22;;;27.60;57.70;;;;;;5038227;28;20195;-75
2021/08/04 05:25:02;;;;;;;8.57;3.70;;;27.70;56.60;;;;;;5042088;28;20683;-73
2021/08/04 05:27:29;;;;;;;6.85;3.40;;;27.70;55.80;;;;;;5041553;28;20222;-73
2021/08/04 05:29:55;;;;;;;8.45;3.85;;;27.80;57.80;;;;;;5045353;28;20192;-75
2021/08/04 05:32:21;;;;;;;6.40;3.53;;;27.80;56.20;;;;;;5060078;28;20833;-73
2021/08/04 05:34:47;;;;;;;8.02;3.10;;;27.80;57.10;;;;;;5044121;28;20180;-72
2021/08/04 05:37:14;;;;;;;6.28;3.65;;;27.90;56.50;;;;;;5044399;28;20219;-75
2021/08/04 05:39:40;;;;;;;8.25;3.42;;;27.90;56.60;;;;;;5043070;28;20656;-75
2021/08/04 05:42:06;;;;;;;6.80;3.20;;;28.00;56.10;;;;;;5040114;28;20187;-73
2021/08/04 05:44:35;;;;;;;4.95;3.33;;;28.20;55.30;;;;;;5041579;28;20199;-76
2021/08/04 05:47:06;;;;;;;8.13;3.13;;;28.30;54.60;;;;;;5027604;28;20211;-73
2021/08/04 05:49:32;;;;;;;5.20;3.25;;;28.50;54.10;;;;;;5064781;28;20235;-73
2021/08/04 05:51:59;;;;;;;5.85;3.42;;;28.40;53.10;;;;;;5046751;28;20194;-75
2021/08/04 05:54:25;;;;;;;5.32;3.33;;;28.40;52.10;;;;;;5047910;28;20192;-76
2021/08/04 05:56:51;;;;;;;12.23;3.38;;;28.70;54.10;;;;;;5045790;28;20800;-73
2021/08/04 05:59:18;;;;;;;11.25;3.10;;;28.70;51.40;;;;;;5030995;28;20816;-76
2021/08/04 06:01:44;;;;;;;9.75;2.85;;;28.70;54.80;;;;;;5046349;28;20274;-75
2021/08/04 06:04:10;;;;;;;3.97;2.80;;;28.70;54.60;;;;;;5046390;28;20196;-75
2021/08/04 06:06:37;;;;;;;10.25;3.38;;;28.60;54.60;;;;;;5048135;28;20207;-75
2021/08/04 06:09:03;;;;;;;11.68;3.78;;;29.00;52.20;;;;;;5046967;28;20180;-74
2021/08/04 06:11:30;;;;;;;7.38;3.45;;;29.40;51.70;;;;;;5027906;28;20187;-73
2021/08/04 06:13:56;;;;;;;8.27;3.28;;;29.70;51.90;;;;;;5046742;28;20205;-76
2021/08/04 06:16:22;;;;;;;7.78;3.10;;;29.90;51.00;;;;;;5031643;28;20718;-73
2021/08/04 06:18:49;;;;;;;7.00;3.20;;;30.10;50.50;;;;;;5060457;28;20187;-73
2021/08/04 06:21:15;;;;;;;4.68;3.17;;;30.20;50.20;;;;;;5045113;28;20196;-76
2021/08/04 06:23:41;;;;;;;9.18;3.47;;;30.40;49.50;;;;;;5051071;28;20190;-73
2021/08/04 06:26:08;;;;;;;9.20;3.10;;;30.30;50.70;;;;;;5042669;28;21417;-73
2021/08/04 06:28:34;;;;;;;9.23;3.83;;;30.30;51.30;;;;;;5043626;28;20869;-72
2021/08/04 06:31:00;;;;;;;8.45;3.65;;;30.40;49.90;;;;;;5044032;28;20211;-73
2021/08/04 06:33:26;;;;;;;5.65;3.47;;;30.20;51.70;;;;;;5029489;28;20190;-74
2021/08/04 06:35:53;;;;;;;7.57;3.38;;;30.40;49.70;;;;;;5033587;28;20190;-73
2021/08/04 06:38:19;;;;;;;11.15;3.63;;;30.60;50.20;;;;;;5030210;28;20202;-73
2021/08/04 06:40:45;;;;;;;7.65;3.30;;;30.80;49.90;;;;;;5043127;28;20187;-73
2021/08/04 06:43:11;;;;;;;9.90;3.53;;;30.50;51.20;;;;;;5031443;28;20203;-72
2021/08/04 06:45:38;;;;;;;6.75;3.15;;;30.40;51.20;;;;;;5027650;28;20219;-73
2021/08/04 06:48:10;;;;;;;17.45;3.75;;;30.40;50.70;;;;;;5044414;28;20225;-73
2021/08/04 06:50:37;;;;;;;5.82;2.95;;;30.80;49.10;;;;;;5026290;28;20330;-73
2021/08/04 06:53:04;;;;;;;8.77;3.00;;;30.80;52.10;;;;;;5046262;28;20188;-74
2021/08/04 06:55:30;;;;;;;7.35;3.17;;;31.00;49.00;;;;;;5046745;28;20207;-75
2021/08/04 06:57:57;;;;;;;6.68;3.40;;;31.10;47.80;;;;;;5044035;28;20191;-75
2021/08/04 07:00:23;;;;;;;5.07;3.30;;;31.40;46.50;;;;;;5048173;28;20190;-75
2021/08/04 07:02:49;;;;;;;8.05;3.15;;;31.70;46.70;;;;;;5046472;28;20190;-75
2021/08/04 07:05:17;;;;;;;6.18;3.40;;;31.90;45.40;;;;;;5044742;28;20183;-74
2021/08/04 07:07:44;;;;;;;4.05;2.97;;;31.80;46.80;;;;;;5049039;28;20298;-72
2021/08/04 07:10:13;;;;;;;10.18;3.47;;;31.80;45.80;;;;;;5044909;28;20318;-72
2021/08/04 07:12:40;;;;;;;9.27;3.40;;;31.90;45.90;;;;;;5043688;28;20187;-75
2021/08/04 07:15:09;;;;;;;8.02;3.10;;;32.10;45.20;;;;;;5045942;28;20195;-75
2021/08/04 07:17:49;;;;;;;7.43;2.80;;;32.30;44.50;;;;;;5055988;28;20200;-77
2021/08/04 07:20:21;;;;;;;9.07;3.28;;;32.40;44.90;;;;;;5045992;28;20194;-74
2021/08/04 07:22:49;;;;;;;8.45;3.05;;;32.10;45.80;;;;;;5060030;28;20215;-75
2021/08/04 07:25:18;;;;;;;8.10;2.60;;;32.50;44.60;;;;;;5047202;28;20246;-76
2021/08/04 07:27:45;;;;;;;10.57;2.38;;;32.70;43.50;;;;;;5046298;28;20208;-73
2021/08/04 07:30:13;;;;;;;12.30;3.10;;;32.70;43.00;;;;;;5048203;28;20572;-72
2021/08/04 07:32:40;;;;;;;8.38;2.83;;;32.70;44.40;;;;;;5027101;28;20529;-73
2021/08/04 07:35:07;;;;;;;6.43;3.28;;;32.60;45.60;;;;;;5027714;28;20549;-74
2021/08/04 07:37:36;;;;;;;5.97;2.65;;;32.80;43.10;;;;;;5044108;28;20249;-73
2021/08/04 07:40:07;;;;;;;9.98;3.63;;;33.00;42.20;;;;;;5045877;28;20187;-74
2021/08/04 07:42:34;;;;;;;14.05;3.40;;;32.90;43.50;;;;;;5044494;28;20200;-75
2021/08/04 07:45:02;;;;;;;5.47;3.20;;;33.00;42.80;;;;;;5047386;28;20195;-75
2021/08/04 07:47:29;;;;;;;6.55;3.05;;;33.10;42.40;;;;;;5044362;28;20211;-75
2021/08/04 07:49:56;;;;;;;8.40;3.70;;;33.20;41.80;;;;;;5045625;28;20279;-75
2021/08/04 07:52:23;;;;;;;8.75;3.90;;;33.00;43.30;;;;;;5049156;28;20180;-75
2021/08/04 07:54:51;;;;;;;12.88;4.20;;;33.30;42.30;;;;;;5046653;28;20187;-73
2021/08/04 07:57:23;;;;;;;4.85;3.75;;;33.40;42.50;;;;;;5041338;28;20200;-73
2021/08/04 07:59:51;;;;;;;5.55;4.10;;;33.40;43.00;;;;;;5028803;28;20260;-73
2021/08/04 08:02:17;;;;;;;13.77;4.55;;;33.50;43.20;;;;;;5043526;28;20191;-74
2021/08/04 08:04:44;;;;;;;13.05;4.53;;;33.60;43.60;;;;;;5047010;28;20640;-75
2021/08/04 08:07:12;;;;;;;14.15;4.72;;;33.60;43.50;;;;;;5041864;28;20212;-73
2021/08/04 08:09:39;;;;;;;9.63;4.60;;;33.70;42.50;;;;;;5057423;28;20192;-75
2021/08/04 08:12:07;;;;;;;6.70;4.80;;;33.60;45.10;;;;;;5043896;28;20186;-74
2021/08/04 08:14:35;;;;;;;15.68;4.07;;;33.60;45.10;;;;;;5026958;28;20250;-75
2021/08/04 08:17:02;;;;;;;11.00;4.47;;;33.40;45.90;;;;;;5026515;28;20230;-73
2021/08/04 08:19:29;;;;;;;10.50;4.78;;;33.60;44.20;;;;;;5044421;28;20287;-73
2021/08/04 08:21:55;;;;;;;8.07;4.80;;;33.80;43.80;;;;;;5059137;28;20184;-74
2021/08/04 08:24:21;;;;;;;9.25;4.82;;;33.90;43.30;;;;;;5042256;28;21367;-73
2021/08/04 08:26:48;;;;;;;12.63;5.13;;;34.10;44.40;;;;;;5045370;28;20222;-73
2021/08/04 08:29:16;;;;;;;15.13;5.43;;;34.20;43.70;;;;;;5036692;28;20191;-73
2021/08/04 08:31:43;;;;;;;11.18;5.55;;;34.20;44.20;;;;;;5042508;28;20183;-72
2021/08/04 08:34:10;;;;;;;8.63;4.93;;;34.10;43.80;;;;;;5042215;28;20180;-72
2021/08/04 08:36:38;;;;;;;13.57;4.60;;;34.10;44.30;;;;;;5045174;28;20184;-74
2021/08/04 08:39:09;;;;;;;12.45;5.47;;;34.30;43.80;;;;;;5042068;28;20187;-73
2021/08/04 08:41:36;;;;;;;10.23;4.90;;;34.40;43.40;;;;;;5042031;28;20194;-73
2021/08/04 08:44:04;;;;;;;12.93;4.40;;;34.50;44.10;;;;;;5041599;28;20180;-76
2021/08/04 08:46:32;;;;;;;8.73;4.85;;;34.50;46.00;;;;;;5024810;28;20273;-73
2021/08/04 08:49:02;;;;;;;7.75;4.85;;;34.50;44.50;;;;;;5042543;28;20192;-73
2021/08/04 08:51:29;;;;;;;8.23;4.80;;;34.50;45.90;;;;;;5045854;28;20230;-73
2021/08/04 08:53:57;;;;;;;10.02;4.10;;;34.70;46.40;;;;;;5046415;28;20198;-72
2021/08/04 08:56:25;;;;;;;8.35;4.63;;;34.60;47.90;;;;;;5057425;28;20490;-73
2021/08/04 08:58:54;;;;;;;10.18;4.68;;;34.80;47.80;;;;;;5023615;28;20218;-73
2021/08/04 09:01:37;;;;;;;15.13;4.72;;;34.80;47.40;;;;;;5038095;28;20875;-72
2021/08/04 09:04:09;;;;;;;13.48;4.28;;;34.80;46.10;;;;;;5043284;28;20187;-73
2021/08/04 09:06:53;;;;;;;8.40;4.72;;;34.90;46.40;;;;;;5027688;28;20246;-73
2021/08/04 09:09:33;;;;;;;11.40;4.35;;;35.00;45.70;;;;;;5042770;28;20187;-73
2021/08/04 09:12:13;;;;;;;10.38;4.38;;;35.00;44.70;;;;;;5052657;28;20256;-75
2021/08/04 09:14:49;;;;;;;7.50;3.90;;;35.20;43.50;;;;;;5023028;28;20222;-73
2021/08/04 09:17:17;;;;;;;6.43;4.57;;;35.30;42.90;;;;;;5026173;28;20274;-74
2021/08/04 09:19:51;;;;;;;8.00;4.68;;;35.20;44.60;;;;;;5024103;28;20277;-73
2021/08/04 09:22:25;;;;;;;8.27;4.57;;;35.30;46.20;;;;;;5044772;28;20214;-75
2021/08/04 09:24:56;;;;;;;16.27;4.70;;;35.30;44.80;;;;;;5043331;28;20736;-75
2021/08/04 09:27:48;;;;;;;8.50;4.75;;;35.40;44.10;;;;;;5043936;28;20200;-75
2021/08/04 09:30:19;;;;;;;9.68;4.35;;;35.40;44.80;;;;;;5046069;28;20290;-75
2021/08/04 09:32:47;;;;;;;11.82;4.47;;;35.70;44.40;;;;;;5063530;28;20377;-73
2021/08/04 09:35:21;;;;;;;6.38;4.05;;;35.70;44.80;;;;;;5044400;28;20282;-76
2021/08/04 09:37:48;;;;;;;11.85;4.50;;;35.80;45.30;;;;;;5045970;28;20199;-76
2021/08/04 09:40:24;;;;;;;11.73;4.43;;;36.00;45.60;;;;;;5047988;28;20839;-76
2021/08/04 09:42:54;;;;;;;6.93;4.10;;;36.00;45.20;;;;;;5031254;28;20191;-76
2021/08/04 09:45:47;;;;;;;8.52;4.30;;;36.00;46.20;;;;;;5035569;28;20191;-77
2021/08/04 09:48:16;;;;;;;8.30;4.35;;;36.00;47.50;;;;;;5027725;28;20211;-77
2021/08/04 09:50:55;;;;;;;8.18;4.57;;;36.10;46.70;;;;;;5029824;28;20191;-73
2021/08/04 09:53:29;;;;;;;13.15;4.80;;;36.10;46.40;;;;;;5029420;28;20187;-73
2021/08/04 09:56:20;;;;;;;5.95;4.50;;;36.10;44.50;;;;;;5029940;28;20200;-73
2021/08/04 09:58:53;;;;;;;9.30;4.35;;;36.20;43.70;;;;;;5045807;28;20252;-74
2021/08/04 10:01:37;;;;;;;14.00;4.30;;;36.60;43.40;;;;;;5025036;28;20246;-74
2021/08/04 10:04:06;;;;;;;11.45;4.20;;;36.80;43.10;;;;;;5047361;28;20179;-75
2021/08/04 10:06:34;;;;;;;7.63;4.50;;;36.70;43.40;;;;;;5044201;28;21013;-75
2021/08/04 10:09:02;;;;;;;7.68;4.30;;;36.70;43.00;;;;;;5043289;28;20198;-74
2021/08/04 10:11:30;;;;;;;11.88;4.28;;;36.90;44.80;;;;;;5027076;28;20206;-77
2021/08/04 10:13:58;;;;;;;7.38;4.10;;;37.10;44.80;;;;;;5063810;28;20758;-75
2021/08/04 10:16:35;;;;;;;6.28;3.97;;;37.30;45.40;;;;;;5045514;28;20741;-76
2021/08/04 10:19:06;;;;;;;8.77;4.20;;;37.40;45.10;;;;;;5027415;28;20274;-73
2021/08/04 10:21:40;;;;;;;7.97;4.63;;;37.40;45.10;;;;;;5022281;28;20310;-74
2021/08/04 10:24:07;;;;;;;7.57;4.20;;;37.30;45.50;;;;;;5027018;28;20246;-74
2021/08/04 10:26:35;;;;;;;7.68;4.15;;;37.20;43.90;;;;;;5048491;28;20278;-74
2021/08/04 10:29:07;;;;;;;8.40;4.22;;;37.40;44.20;;;;;;5047335;28;20179;-73
2021/08/04 10:31:37;;;;;;;9.70;4.10;;;37.50;46.70;;;;;;5031217;28;20188;-74
2021/08/04 10:34:06;;;;;;;9.35;3.90;;;37.80;45.60;;;;;;5038423;28;20548;-74
2021/08/04 10:36:37;;;;;;;9.02;4.68;;;38.00;44.50;;;;;;5045977;28;20176;-74
2021/08/04 10:39:19;;;;;;;7.97;4.20;;;38.10;43.50;;;;;;5049947;28;20651;-74
2021/08/04 10:42:08;;;;;;;13.20;4.40;;;38.30;45.60;;;;;;5029254;28;20198;-74
2021/08/04 10:44:36;;;;;;;7.18;4.18;;;38.30;45.80;;;;;;5040949;28;20192;-74
2021/08/04 10:47:24;;;;;;;6.65;4.03;;;38.30;45.80;;;;;;5046526;28;20679;-74
2021/08/04 10:50:13;;;;;;;13.80;4.63;;;38.10;45.70;;;;;;5032944;28;20191;-74
2021/08/04 10:52:58;;;;;;;9.82;4.30;;;38.00;46.80;;;;;;5043707;28;20183;-73
2021/08/04 10:55:26;;;;;;;7.40;4.53;;;37.90;46.60;;;;;;5027829;28;20937;-74
2021/08/04 10:58:05;;;;;;;11.63;4.82;;;37.70;46.20;;;;;;5027972;28;20235;-73
2021/08/04 11:00:33;;;;;;;7.10;4.07;;;37.80;48.30;;;;;;5027729;28;20211;-73
2021/08/04 11:03:20;;;;;;;9.15;3.75;;;37.80;46.70;;;;;;5046297;28;20257;-73
2021/08/04 11:06:08;;;;;;;6.85;3.90;;;37.70;46.20;;;;;;5046077;28;20283;-74
2021/08/04 11:08:35;;;;;;;10.82;4.50;;;37.70;48.00;;;;;;5025437;28;20742;-73
2021/08/04 11:11:01;;;;;;;6.03;3.92;;;37.70;48.40;;;;;;5028286;28;20728;-74
2021/08/04 11:13:49;;;;;;;7.68;3.90;;;37.70;49.10;;;;;;5042124;28;20185;-73
2021/08/04 11:16:35;;;;;;;10.10;4.63;;;37.70;48.60;;;;;;5039961;28;20195;-75
2021/08/04 11:19:10;;;;;;;9.27;3.85;;;37.70;50.40;;;;;;5027453;28;20191;-74
2021/08/04 11:21:38;;;;;;;8.85;3.72;;;37.60;48.20;;;;;;5040797;28;20254;-74
2021/08/04 11:24:06;;;;;;;5.57;3.80;;;37.60;47.70;;;;;;5027825;28;20253;-74
2021/08/04 11:26:41;;;;;;;6.07;3.53;;;37.60;48.80;;;;;;5041935;28;20199;-73
2021/08/04 11:29:10;;;;;;;16.48;4.13;;;37.40;48.40;;;;;;5034309;28;20764;-74
2021/08/04 11:31:39;;;;;;;12.52;4.00;;;37.40;49.20;;;;;;5043843;28;20195;-75
2021/08/04 11:34:33;;;;;;;9.18;3.90;;;37.50;49.50;;;;;;5020464;28;20184;-74
2021/08/04 11:37:03;;;;;;;9.05;3.90;;;37.50;47.40;;;;;;5057049;28;20241;-74
2021/08/04 11:39:30;;;;;;;8.45;3.70;;;37.40;49.60;;;;;;5054643;28;20184;-73
2021/08/04 11:42:05;;;;;;;5.90;3.70;;;37.50;49.30;;;;;;5059831;28;20196;-74
2021/08/04 11:44:34;;;;;;;13.65;4.05;;;37.50;50.40;;;;;;5054965;28;20219;-73
2021/08/04 11:47:05;;;;;;;5.03;3.83;;;37.50;49.60;;;;;;5040816;28;20560;-73
2021/08/04 11:49:46;;;;;;;10.38;3.80;;;37.40;48.80;;;;;;5044994;28;20187;-74
2021/08/04 11:52:19;;;;;;;9.15;3.88;;;37.30;49.00;;;;;;5055588;28;20191;-74
2021/08/04 11:55:11;;;;;;;14.10;3.70;;;37.40;47.00;;;;;;5041342;28;20210;-73
2021/08/04 11:57:43;;;;;;;7.40;3.47;;;37.10;48.10;;;;;;5037757;28;20210;-73
2021/08/04 12:00:28;;;;;;;8.82;3.40;;;37.30;47.20;;;;;;5039975;28;20218;-73
2021/08/04 12:02:55;;;;;;;7.57;3.30;;;37.40;48.20;;;;;;5023514;28;20537;-73
2021/08/04 12:05:21;;;;;;;7.40;3.28;;;37.40;46.20;;;;;;5041814;28;20187;-75
2021/08/04 12:07:48;;;;;;;6.60;3.47;;;37.20;46.80;;;;;;5043710;28;20254;-76
2021/08/04 12:10:23;;;;;;;7.57;2.95;;;37.30;46.20;;;;;;5056790;28;20238;-72
2021/08/04 12:12:53;;;;;;;4.50;3.15;;;37.40;48.30;;;;;;5044693;28;20255;-75
2021/08/04 12:15:28;;;;;;;5.25;3.20;;;37.60;48.40;;;;;;5044523;28;20276;-73
2021/08/04 12:18:05;;;;;;;5.63;2.90;;;37.30;47.10;;;;;;5027425;28;20199;-73
2021/08/04 12:20:37;;;;;;;8.73;3.10;;;37.00;45.40;;;;;;5043234;28;20193;-73
2021/08/04 12:23:07;;;;;;;10.02;3.05;;;37.40;43.90;;;;;;5040849;28;20195;-72
2021/08/04 12:25:37;;;;;;;13.60;2.58;;;37.60;45.00;;;;;;5026772;28;20183;-72
2021/08/04 12:28:06;;;;;;;10.05;3.10;;;37.50;41.90;;;;;;5043024;28;20207;-75
2021/08/04 12:30:43;;;;;;;9.02;2.83;;;37.80;43.80;;;;;;5046459;28;20183;-74
2021/08/04 12:33:20;;;;;;;5.47;3.10;;;37.60;44.20;;;;;;5043288;28;20187;-74
2021/08/04 12:36:02;;;;;;;13.48;3.90;;;37.70;49.80;;;;;;5029632;28;20757;-74
2021/08/04 12:38:37;;;;;;;7.80;4.03;;;37.70;52.90;;;;;;5058980;28;20237;-74
2021/08/04 12:41:07;;;;;;;12.65;3.80;;;37.50;54.70;;;;;;5040738;28;20294;-74
2021/08/04 12:43:40;;;;;;;9.40;4.85;;;37.80;57.20;;;;;;5038632;28;20188;-75
2021/08/04 12:46:09;;;;;;;9.98;4.43;;;37.80;57.80;;;;;;5038736;28;20769;-75
2021/08/04 12:48:48;;;;;;;12.98;4.78;;;37.60;58.20;;;;;;5041724;28;20239;-75
2021/08/04 12:51:23;;;;;;;14.82;4.22;;;37.50;58.90;;;;;;5039160;28;20532;-74
2021/08/04 12:54:03;;;;;;;10.20;4.53;;;37.50;58.10;;;;;;5025693;28;20274;-74
2021/08/04 12:56:36;;;;;;;9.15;4.18;;;37.40;58.90;;;;;;5040269;28;20702;-72
2021/08/04 12:59:12;;;;;;;11.38;4.63;;;37.30;59.20;;;;;;5043036;28;20257;-74
2021/08/04 13:01:42;;;;;;;9.13;4.75;;;37.10;60.40;;;;;;5041063;28;20235;-75
2021/08/04 13:04:31;;;;;;;7.15;4.28;;;37.10;61.10;;;;;;5030574;28;20194;-76